createdAt,value
2023-02-13T00:02:07.465Z,14.52
2023-02-13T00:07:11.942Z,17.33
2023-02-13T00:12:13.494Z,14.20
2023-02-13T00:17:15.187Z,15.93
2023-02-13T00:22:16.837Z,19.35
2023-02-13T00:27:18.882Z,18.23
2023-02-13T00:32:20.556Z,14.88
2023-02-13T00:37:22.205Z,16.55
2023-02-13T00:42:27.090Z,20.35
2023-02-13T00:47:28.699Z,21.00
2023-02-13T00:52:30.521Z,18.27
2023-02-13T00:57:32.456Z,18.73
2023-02-13T01:02:36.206Z,20.23
2023-02-13T01:07:37.843Z,19.83
2023-02-13T01:12:40.520Z,17.75
2023-02-13T01:17:42.083Z,19.17
2023-02-13T01:22:44.804Z,23.65
2023-02-13T01:27:48.768Z,21.13
2023-02-13T01:32:52.465Z,20.88
2023-02-13T01:37:54.224Z,21.55
2023-02-13T01:42:55.770Z,19.13
2023-02-13T01:48:07.024Z,16.00
2023-02-13T01:53:20.098Z,22.08
2023-02-13T01:58:27.927Z,18.05
2023-02-13T02:04:05.138Z,22.90
2023-02-13T02:09:16.033Z,30.43
2023-02-13T02:14:18.790Z,27.15
2023-02-13T02:19:41.828Z,28.80
2023-02-13T02:25:22.488Z,22.67
2023-02-13T02:36:03.170Z,22.13
2023-02-13T02:41:42.499Z,23.65
2023-02-13T02:47:20.946Z,21.30
2023-02-13T02:52:31.247Z,21.63
2023-02-13T02:57:56.652Z,21.38
2023-02-13T03:03:17.013Z,20.40
2023-02-13T03:08:38.935Z,19.73
2023-02-13T03:13:48.302Z,19.10
2023-02-13T03:19:16.630Z,17.05
2023-02-13T03:24:55.799Z,20.73
2023-02-13T03:30:09.359Z,19.23
2023-02-13T03:35:57.725Z,20.88
2023-02-13T03:41:18.684Z,16.63
2023-02-13T03:46:21.330Z,20.33
2023-02-13T03:51:32.451Z,18.92
2023-02-13T03:56:55.586Z,21.00
2023-02-13T04:02:05.703Z,19.17
2023-02-13T04:07:12.197Z,16.60
2023-02-13T04:12:20.918Z,14.75
2023-02-13T04:17:34.135Z,14.47
2023-02-13T04:22:42.523Z,19.33
2023-02-13T04:27:44.346Z,17.40
2023-02-13T04:32:45.888Z,21.42
2023-02-13T04:37:47.517Z,16.25
2023-02-13T04:42:49.824Z,21.13
2023-02-13T04:47:53.462Z,21.85
2023-02-13T04:52:56.780Z,17.70
2023-02-13T04:57:58.487Z,17.80
2023-02-13T05:03:08.610Z,16.33
2023-02-13T05:08:10.632Z,19.40
2023-02-13T05:13:12.248Z,22.88
2023-02-13T05:18:13.958Z,22.25
2023-02-13T05:23:24.474Z,20.52
2023-02-13T05:28:44.701Z,19.88
2023-02-13T05:33:46.312Z,16.20
2023-02-13T05:38:48.009Z,20.35
2023-02-13T05:43:49.747Z,14.65
2023-02-13T05:48:52.066Z,18.95
2023-02-13T05:53:53.963Z,20.08
2023-02-13T05:58:56.156Z,18.23
2023-02-13T06:03:59.603Z,26.23
2023-02-13T06:09:01.678Z,17.20
2023-02-13T06:14:03.275Z,15.35
2023-02-13T06:19:05.072Z,16.10
2023-02-13T06:24:08.209Z,17.65
2023-02-13T06:29:09.797Z,24.25
2023-02-13T06:34:11.395Z,18.45
2023-02-13T06:39:13.147Z,17.63
2023-02-13T06:44:15.045Z,18.05
2023-02-13T06:49:16.658Z,18.30
2023-02-13T06:54:18.396Z,23.77
2023-02-13T06:59:20.047Z,29.25
2023-02-13T07:04:21.779Z,33.13
2023-02-13T07:09:26.743Z,31.83
2023-02-13T07:14:28.320Z,238.00
2023-02-13T07:19:30.051Z,101.05
2023-02-13T07:24:33.730Z,139.38
2023-02-13T07:29:35.356Z,259.40
2023-02-13T07:34:36.908Z,151.23
2023-02-13T07:39:39.014Z,213.45
2023-02-13T07:44:40.629Z,157.73
2023-02-13T07:49:45.567Z,105.00
2023-02-13T07:54:47.749Z,97.18
2023-02-13T07:59:49.533Z,99.97
2023-02-13T08:04:51.060Z,65.75
2023-02-13T08:10:12.899Z,70.30
2023-02-13T08:15:15.680Z,171.88
2023-02-13T08:20:17.381Z,93.22
2023-02-13T08:25:19.699Z,72.95
2023-02-13T08:30:21.361Z,96.20
2023-02-13T08:35:26.736Z,30.90
2023-02-13T08:40:28.396Z,47.47
2023-02-13T08:45:30.492Z,78.10
2023-02-13T08:50:32.339Z,62.80
2023-02-13T08:55:34.032Z,50.80
2023-02-13T09:00:35.607Z,44.08
2023-02-13T09:05:37.217Z,46.95
2023-02-13T09:10:39.340Z,59.50
2023-02-13T09:15:41.622Z,32.55
2023-02-13T09:20:43.178Z,43.65
2023-02-13T09:25:44.733Z,39.58
2023-02-13T09:30:46.355Z,61.05
2023-02-13T09:35:48.008Z,48.55
2023-02-13T09:41:02.136Z,38.88
2023-02-13T09:46:19.072Z,42.75
2023-02-13T09:51:23.316Z,38.20
2023-02-13T09:56:54.845Z,40.22
2023-02-13T10:02:03.446Z,41.03
2023-02-13T10:07:25.856Z,53.05
2023-02-13T10:12:54.661Z,41.50
2023-02-13T10:18:05.188Z,40.58
2023-02-13T10:23:18.524Z,40.00
2023-02-13T10:28:38.574Z,33.15
2023-02-13T10:33:52.090Z,28.13
2023-02-13T10:39:05.818Z,31.15
2023-02-13T10:44:26.016Z,37.08
2023-02-13T10:49:57.405Z,33.05
2023-02-13T10:55:04.814Z,29.08
2023-02-13T11:00:12.556Z,35.60
2023-02-13T11:05:22.165Z,34.55
2023-02-13T11:10:26.712Z,30.75
2023-02-13T11:15:29.784Z,30.77
2023-02-13T11:20:44.440Z,30.38
2023-02-13T11:26:04.717Z,32.13
2023-02-13T11:31:12.353Z,71.05
2023-02-13T11:36:35.676Z,42.03
2023-02-13T11:41:43.751Z,38.35
2023-02-13T11:46:51.169Z,38.08
2023-02-13T11:51:58.602Z,35.25
2023-02-13T11:57:17.196Z,34.45
2023-02-13T12:02:23.904Z,34.85
2023-02-13T12:07:29.207Z,29.13
2023-02-13T12:12:47.276Z,29.63
2023-02-13T12:17:59.185Z,33.67
2023-02-13T12:23:03.616Z,30.63
2023-02-13T12:28:26.083Z,39.30
2023-02-13T12:33:43.297Z,35.00
2023-02-13T12:38:57.407Z,38.10
2023-02-13T12:44:04.011Z,36.65
2023-02-13T12:49:26.238Z,35.25
2023-02-13T12:54:57.160Z,35.72
2023-02-13T13:00:13.077Z,30.80
2023-02-13T13:05:50.733Z,39.45
2023-02-13T13:11:08.088Z,40.58
2023-02-13T13:16:28.088Z,36.67
2023-02-13T13:21:39.395Z,36.08
2023-02-13T13:26:54.113Z,40.00
2023-02-13T13:32:21.101Z,37.28
2023-02-13T13:37:35.736Z,36.45
2023-02-13T13:43:18.926Z,39.42
2023-02-13T13:48:51.517Z,36.20
2023-02-13T13:54:04.944Z,33.65
2023-02-13T13:59:17.592Z,35.17
2023-02-13T14:05:07.085Z,31.65
2023-02-13T14:10:20.532Z,32.55
2023-02-13T14:15:34.116Z,33.38
2023-02-13T14:20:50.989Z,36.47
2023-02-13T14:26:17.344Z,30.85
2023-02-13T14:31:22.534Z,31.88
2023-02-13T14:36:33.152Z,31.40
2023-02-13T14:41:56.581Z,31.60
2023-02-13T14:47:01.795Z,33.22
2023-02-13T14:52:06.614Z,34.78
2023-02-13T14:57:29.749Z,33.45
2023-02-13T15:02:44.997Z,32.47
2023-02-13T15:07:53.852Z,30.90
2023-02-13T15:13:01.912Z,33.47
2023-02-13T15:18:10.367Z,31.38
2023-02-13T15:23:23.522Z,33.38
2023-02-13T15:28:25.867Z,30.48
2023-02-13T15:33:32.482Z,35.58
2023-02-13T15:38:39.361Z,28.90
2023-02-13T15:43:44.193Z,30.48
2023-02-13T15:48:46.778Z,30.65
2023-02-13T15:53:56.892Z,32.33
2023-02-13T15:59:00.903Z,29.75
2023-02-13T16:04:06.783Z,32.20
2023-02-13T16:09:23.512Z,31.02
2023-02-13T16:14:27.914Z,35.63
2023-02-13T16:19:37.426Z,33.17
2023-02-13T16:24:39.004Z,33.03
2023-02-13T16:29:54.686Z,34.60
2023-02-13T16:34:57.298Z,30.30
2023-02-13T16:40:33.287Z,33.33
2023-02-13T16:45:34.947Z,40.13
2023-02-13T16:50:36.613Z,37.13
2023-02-13T16:55:38.237Z,39.72
2023-02-13T17:00:39.854Z,41.58
2023-02-13T17:05:41.402Z,38.83
2023-02-13T17:11:07.464Z,46.92
2023-02-13T17:16:10.142Z,47.08
2023-02-13T17:21:12.648Z,42.92
2023-02-13T17:26:14.283Z,47.78
2023-02-13T17:31:15.904Z,42.63
2023-02-13T17:36:17.522Z,48.60
2023-02-13T17:41:19.405Z,42.20
2023-02-13T17:46:21.045Z,38.38
2023-02-13T17:51:22.676Z,34.15
2023-02-13T17:56:24.280Z,41.75
2023-02-13T18:01:25.862Z,46.58
2023-02-13T18:06:27.413Z,40.05
2023-02-13T18:11:28.975Z,40.70
2023-02-13T18:16:32.102Z,48.53
2023-02-13T18:21:33.674Z,41.97
2023-02-13T18:26:35.330Z,39.40
2023-02-13T18:31:36.987Z,39.03
2023-02-13T18:36:38.763Z,40.95
2023-02-13T18:41:40.349Z,35.78
2023-02-13T18:46:42.039Z,32.28
2023-02-13T18:51:44.461Z,34.80
2023-02-13T18:56:46.060Z,39.72
2023-02-13T19:01:47.613Z,47.67
2023-02-13T19:06:49.242Z,41.33
2023-02-13T19:11:51.649Z,54.22
2023-02-13T19:16:53.212Z,45.40
2023-02-13T19:21:54.776Z,46.15
2023-02-13T19:26:58.735Z,44.35
2023-02-13T19:32:00.362Z,42.22
2023-02-13T19:37:02.025Z,37.15
2023-02-13T19:42:03.741Z,35.50
2023-02-13T19:47:05.385Z,37.15
2023-02-13T19:52:06.943Z,37.03
2023-02-13T19:57:08.520Z,36.00
2023-02-13T20:02:14.113Z,36.95
2023-02-13T20:07:15.711Z,46.22
2023-02-13T20:12:17.287Z,41.70
2023-02-13T20:17:18.806Z,39.47
2023-02-13T20:22:20.322Z,38.33
2023-02-13T20:27:21.856Z,41.10
2023-02-13T20:32:23.565Z,44.75
2023-02-13T20:37:25.136Z,49.85
2023-02-13T20:42:27.108Z,155.27
2023-02-13T20:47:31.004Z,69.82
2023-02-13T20:52:33.943Z,116.35
2023-02-13T20:57:36.627Z,196.55
2023-02-13T21:02:38.216Z,77.97
2023-02-13T21:07:39.908Z,94.10
2023-02-13T21:12:41.485Z,68.05
2023-02-13T21:17:42.999Z,90.88
2023-02-13T21:22:44.564Z,63.00
2023-02-13T21:27:46.112Z,132.27
2023-02-13T21:32:47.706Z,136.88
2023-02-13T21:37:49.251Z,76.15
2023-02-13T21:42:54.075Z,115.78
2023-02-13T21:47:56.533Z,110.97
2023-02-13T21:52:58.385Z,113.65
2023-02-13T21:58:00.130Z,87.50
2023-02-13T22:03:01.765Z,121.07
2023-02-13T22:08:12.868Z,99.93
2023-02-13T22:13:14.404Z,83.80
2023-02-13T22:18:15.927Z,107.85
2023-02-13T22:23:17.600Z,75.68
2023-02-13T22:28:19.143Z,102.13
2023-02-13T22:33:21.077Z,95.78
2023-02-13T22:38:22.645Z,74.60
2023-02-13T22:43:24.155Z,80.60
2023-02-13T22:48:25.737Z,100.78
2023-02-13T22:53:27.262Z,114.07
2023-02-13T22:58:28.883Z,151.65
2023-02-13T23:03:32.895Z,56.50
2023-02-13T23:08:35.573Z,73.78
2023-02-13T23:13:37.100Z,77.18
2023-02-13T23:18:38.644Z,109.55
2023-02-13T23:23:40.231Z,86.93
2023-02-13T23:28:41.994Z,72.35
2023-02-13T23:33:43.540Z,64.03
2023-02-13T23:38:46.527Z,96.70
2023-02-13T23:43:48.042Z,103.90
2023-02-13T23:48:49.545Z,47.67
2023-02-13T23:53:54.874Z,69.35
2023-02-13T23:58:56.558Z,67.35
